Time;durP1;ratioP1;P1;durP2;ratioP2;P2;SDS_P1;SDS_P2;PMS_P1;PMS_P2;Temp;Humidity;BMP_temperature;BMP_pressure;BME280_temperature;BME280_humidity;BME280_pressure;Samples;Min_cycle;Max_cycle;Signal;HPM_P1;HPM_P2
2023/02/04 00:00:21;;;;;;;13.20;5.75;;;;;;;10.33;84.23;103042.31;5076042;28;20052;-69
2023/02/04 00:02:49;;;;;;;16.05;7.28;;;;;;;10.25;84.83;103040.84;5076858;28;20049;-68
2023/02/04 00:05:17;;;;;;;15.18;6.15;;;;;;;10.46;83.99;103041.94;5076203;28;20049;-67
2023/02/04 00:07:45;;;;;;;15.88;6.20;;;;;;;10.09;85.52;103041.72;5076208;28;20067;-68
2023/02/04 00:10:12;;;;;;;13.80;5.93;;;;;;;10.15;86.12;103043.44;5074547;28;20049;-69
2023/02/04 00:12:39;;;;;;;15.73;7.13;;;;;;;10.05;86.20;103043.25;5074648;28;20764;-67
2023/02/04 00:15:07;;;;;;;13.70;6.55;;;;;;;10.23;86.34;103034.75;5074853;28;20051;-68
2023/02/04 00:17:34;;;;;;;14.40;6.40;;;;;;;10.41;85.29;103039.94;5075756;28;20044;-68
2023/02/04 00:20:02;;;;;;;12.85;6.75;;;;;;;10.29;85.08;103044.72;5074702;28;20056;-67
2023/02/04 00:22:30;;;;;;;14.13;7.32;;;;;;;10.02;86.83;103046.53;5075237;28;20048;-68
2023/02/04 00:24:57;;;;;;;13.50;7.00;;;;;;;10.08;87.61;103031.72;5075715;28;20052;-68
2023/02/04 00:27:24;;;;;;;15.88;7.18;;;;;;;10.33;86.45;103032.13;5075999;28;20060;-68
2023/02/04 00:29:51;;;;;;;17.27;7.38;;;;;;;10.17;86.29;103028.34;5057650;28;20517;-67
2023/02/04 00:32:19;;;;;;;20.58;7.53;;;;;;;10.01;87.85;103036.59;5075441;28;20072;-68
2023/02/04 00:34:46;;;;;;;15.90;7.72;;;;;;;10.38;86.75;103028.59;5074697;28;20049;-68
2023/02/04 00:37:13;;;;;;;16.17;7.43;;;;;;;10.44;85.64;103024.81;5074025;28;20427;-67
2023/02/04 00:39:41;;;;;;;18.80;7.95;;;;;;;10.41;86.24;103031.66;5074065;28;20045;-67
2023/02/04 00:42:08;;;;;;;16.15;7.80;;;;;;;10.40;86.24;103031.94;5057768;28;20380;-68
2023/02/04 00:44:35;;;;;;;18.08;8.77;;;;;;;10.47;85.83;103030.66;5074899;28;20049;-67
2023/02/04 00:47:03;;;;;;;17.75;8.20;;;;;;;10.39;85.92;103024.75;5075504;28;20150;-67
2023/02/04 00:49:33;;;;;;;19.98;8.43;;;;;;;10.07;87.62;103027.31;5074458;28;20399;-68
2023/02/04 00:52:01;;;;;;;20.15;8.43;;;;;;;10.18;88.26;103027.22;5075548;28;20047;-68
2023/02/04 00:54:28;;;;;;;18.10;8.70;;;;;;;10.53;86.31;103023.28;5073672;28;20048;-67
2023/02/04 00:56:56;;;;;;;15.32;8.25;;;;;;;10.68;85.61;103024.31;5074945;28;20063;-67
2023/02/04 00:59:23;;;;;;;13.75;7.53;;;;;;;10.98;84.05;103023.81;5074084;28;20590;-67
2023/02/04 01:01:51;;;;;;;18.30;9.18;;;;;;;10.63;84.24;103028.91;5075389;28;20063;-67
2023/02/04 01:04:18;;;;;;;18.67;8.80;;;;;;;10.29;86.09;103027.41;5073737;28;20468;-67
2023/02/04 01:06:45;;;;;;;18.52;8.90;;;;;;;10.17;87.09;103035.75;5072680;28;20053;-68
2023/02/04 01:09:13;;;;;;;18.52;9.95;;;;;;;10.05;88.26;103035.00;5073484;28;20131;-67
2023/02/04 01:11:41;;;;;;;25.52;8.88;;;;;;;10.03;88.70;103032.50;5055920;28;20410;-67
2023/02/04 01:14:09;;;;;;;20.20;8.98;;;;;;;10.23;88.54;103042.16;5073794;28;20048;-67
2023/02/04 01:16:38;;;;;;;19.80;8.83;;;;;;;10.33;86.96;103045.91;5073370;28;20048;-67
2023/02/04 01:19:05;;;;;;;21.30;9.05;;;;;;;10.22;87.82;103035.00;5073752;28;20286;-68
2023/02/04 01:21:33;;;;;;;19.08;9.45;;;;;;;9.98;89.02;103042.59;5073283;28;20048;-68
2023/02/04 01:24:00;;;;;;;22.23;9.60;;;;;;;9.88;89.81;103039.72;5056401;28;20423;-67
2023/02/04 01:26:28;;;;;;;21.08;9.50;;;;;;;9.84;90.12;103035.78;5073104;28;20377;-68
2023/02/04 01:28:55;;;;;;;23.98;9.70;;;;;;;9.89;90.00;103038.63;5074802;28;20072;-67
2023/02/04 01:31:24;;;;;;;23.48;9.80;;;;;;;10.12;90.05;103043.94;5039707;28;20055;-67
2023/02/04 01:33:51;;;;;;;25.38;10.63;;;;;;;10.14;89.40;103047.28;5085797;28;20055;-67
2023/02/04 01:36:20;;;;;;;25.30;9.15;;;;;;;10.32;89.15;103038.72;5083869;28;20072;-68
2023/02/04 01:38:48;;;;;;;17.75;9.70;;;;;;;10.33;88.27;103045.06;5082736;28;20047;-68
2023/02/04 01:41:17;;;;;;;20.45;9.77;;;;;;;10.18;89.17;103053.97;5067291;28;20048;-68
2023/02/04 01:43:46;;;;;;;23.02;10.32;;;;;;;10.01;89.57;103058.63;5065289;28;20600;-67
2023/02/04 01:46:14;;;;;;;23.05;11.48;;;;;;;10.23;90.08;103052.09;5084557;28;20047;-67
2023/02/04 01:48:41;;;;;;;18.65;10.18;;;;;;;10.20;89.25;103055.34;5083524;28;20059;-67
2023/02/04 01:51:14;;;;;;;26.40;11.30;;;;;;;9.73;91.29;103050.47;5086200;28;20139;-68
2023/02/04 01:53:42;;;;;;;27.40;11.05;;;;;;;9.72;92.60;103051.56;5077419;28;20586;-68
2023/02/04 01:56:25;;;;;;;30.23;11.55;;;;;;;9.66;93.35;103060.84;5077182;28;20049;-68
2023/02/04 01:58:54;;;;;;;22.20;10.93;;;;;;;9.68;94.03;103050.38;5077718;28;20059;-68
2023/02/04 02:01:41;;;;;;;22.17;11.75;;;;;;;9.86;92.57;103047.38;5076653;28;20056;-68
2023/02/04 02:04:17;;;;;;;29.77;11.68;;;;;;;9.97;92.47;103047.28;5078892;28;20056;-68
2023/02/04 02:06:54;;;;;;;23.20;10.98;;;;;;;10.08;91.77;103038.13;5078158;28;20135;-68
2023/02/04 02:09:21;;;;;;;27.13;12.23;;;;;;;10.12;91.74;103041.19;5060589;28;20057;-68
2023/02/04 02:11:49;;;;;;;26.25;11.48;;;;;;;10.02;91.51;103035.53;5076827;28;20048;-68
2023/02/04 02:14:16;;;;;;;25.50;12.73;;;;;;;9.76;93.63;103037.03;5077220;28;20063;-68
2023/02/04 02:16:43;;;;;;;30.65;12.63;;;;;;;9.80;93.65;103035.47;5077763;28;20083;-68
2023/02/04 02:19:15;;;;;;;29.05;12.77;;;;;;;10.05;93.08;103040.50;5076738;28;20061;-67
2023/02/04 02:21:52;;;;;;;24.73;12.40;;;;;;;10.15;91.82;103037.91;5077827;28;20368;-67
2023/02/04 02:24:31;;;;;;;22.25;12.25;;;;;;;10.17;91.56;103038.50;5076574;28;20746;-67
2023/02/04 02:27:01;;;;;;;32.80;13.60;;;;;;;9.96;93.00;103031.84;5059785;28;20056;-67
2023/02/04 02:29:28;;;;;;;27.77;13.00;;;;;;;9.87;93.86;103038.03;5073122;28;20048;-67
2023/02/04 02:31:56;;;;;;;26.02;13.40;;;;;;;10.02;93.88;103035.53;5050231;28;20136;-69
2023/02/04 02:34:26;;;;;;;26.58;13.20;;;;;;;9.77;94.10;103026.88;5070224;28;20060;-68
2023/02/04 02:36:54;;;;;;;29.52;13.77;;;;;;;9.65;95.81;103034.38;5052469;28;20056;-67
2023/02/04 02:39:23;;;;;;;31.63;13.63;;;;;;;9.85;95.33;103029.22;5051869;28;20052;-68
2023/02/04 02:41:50;;;;;;;28.65;13.85;;;;;;;9.83;95.23;103028.63;5059753;28;20045;-68
2023/02/04 02:44:18;;;;;;;34.60;15.63;;;;;;;9.69;95.85;103028.13;5075653;28;20060;-66
2023/02/04 02:46:45;;;;;;;32.90;14.18;;;;;;;9.83;95.71;103031.38;5075773;28;20075;-68
2023/02/04 02:49:16;;;;;;;33.08;14.77;;;;;;;9.99;95.35;103036.00;5050667;28;20041;-67
2023/02/04 02:51:44;;;;;;;31.80;14.73;;;;;;;10.14;94.09;103037.13;5068787;28;20415;-67
2023/02/04 02:54:30;;;;;;;26.90;13.70;;;;;;;9.81;95.15;103028.88;5076596;28;20063;-67
2023/02/04 02:57:01;;;;;;;29.02;14.15;;;;;;;9.54;96.85;103033.38;5059937;28;20075;-67
2023/02/04 02:59:28;;;;;;;35.75;15.13;;;;;;;9.59;97.29;103033.47;5043177;28;20079;-67
2023/02/04 03:01:59;;;;;;;28.15;13.93;;;;;;;9.80;97.29;103040.13;5058461;28;20056;-68
2023/02/04 03:04:32;;;;;;;30.95;14.07;;;;;;;10.12;95.26;103031.03;5046217;28;20041;-67
2023/02/04 03:06:59;;;;;;;30.00;14.00;;;;;;;9.99;94.54;103036.00;5067694;28;20049;-67
2023/02/04 03:09:28;;;;;;;27.65;13.98;;;;;;;10.12;94.46;103041.19;5069206;28;20546;-67
2023/02/04 03:11:56;;;;;;;32.83;14.40;;;;;;;10.13;94.00;103037.34;5077036;28;20093;-67
2023/02/04 03:14:24;;;;;;;31.25;13.73;;;;;;;10.07;93.90;103035.59;5076205;28;20064;-68
2023/02/04 03:16:53;;;;;;;32.95;13.82;;;;;;;10.14;93.72;103042.63;5075476;28;20472;-67
2023/02/04 03:19:22;;;;;;;29.42;13.52;;;;;;;10.04;94.08;103033.34;5059248;28;20056;-68
2023/02/04 03:21:50;;;;;;;28.35;12.98;;;;;;;10.15;94.10;103040.69;5081078;28;20041;-68
2023/02/04 03:24:17;;;;;;;29.60;13.32;;;;;;;10.44;92.47;103033.94;5055150;28;20110;-68
2023/02/04 03:26:44;;;;;;;32.53;13.45;;;;;;;10.03;93.57;103032.50;5069552;28;20068;-68
2023/02/04 03:29:12;;;;;;;29.70;12.30;;;;;;;9.91;95.03;103036.44;5075839;28;20063;-67
2023/02/04 03:31:39;;;;;;;28.50;13.18;;;;;;;9.84;96.00;103033.88;5074719;28;20467;-66
2023/02/04 03:34:06;;;;;;;27.63;14.00;;;;;;;9.94;95.32;103042.28;5061766;28;20427;-67
2023/02/04 03:36:35;;;;;;;29.08;13.23;;;;;;;9.99;95.28;103033.25;5078375;28;20424;-68
2023/02/04 03:39:03;;;;;;;33.67;13.13;;;;;;;9.93;95.32;103039.78;5081346;28;20424;-68
2023/02/04 03:41:30;;;;;;;28.45;12.25;;;;;;;9.86;95.00;103039.13;5076473;28;20053;-67
2023/02/04 03:43:58;;;;;;;27.52;12.55;;;;;;;9.80;96.22;103034.63;5075173;28;20052;-67
2023/02/04 03:46:26;;;;;;;29.45;13.80;;;;;;;9.86;95.95;103036.38;5074954;28;20048;-67
2023/02/04 03:48:53;;;;;;;24.13;12.98;;;;;;;10.08;95.06;103045.50;5076619;28;20037;-67
2023/02/04 03:51:21;;;;;;;24.58;13.45;;;;;;;10.09;94.63;103037.00;5074896;28;20052;-66
2023/02/04 03:53:48;;;;;;;27.65;12.70;;;;;;;10.17;93.64;103044.84;5076097;28;20049;-68
2023/02/04 03:56:15;;;;;;;25.52;12.25;;;;;;;10.19;93.86;103052.88;5075824;28;20048;-67
2023/02/04 03:58:42;;;;;;;27.08;12.43;;;;;;;10.23;93.73;103044.94;5076314;28;20528;-67
2023/02/04 04:01:10;;;;;;;27.13;12.73;;;;;;;10.22;93.05;103041.34;5075878;28;20407;-67
2023/02/04 04:03:37;;;;;;;29.42;11.48;;;;;;;10.38;92.03;103048.72;5075040;28;20044;-67
2023/02/04 04:06:07;;;;;;;24.30;12.57;;;;;;;10.03;93.47;103049.03;5075353;28;20055;-67
2023/02/04 04:08:35;;;;;;;;;;;;;;;10.12;94.12;103053.06;5075112;28;20048;-67
2023/02/04 04:11:02;;;;;;;30.25;13.02;;;;;;;9.89;94.41;103052.38;5075426;28;19927;-67
2023/02/04 04:13:29;;;;;;;34.55;13.07;;;;;;;9.91;95.17;103051.06;5075589;28;20055;-67
2023/02/04 04:15:56;;;;;;;27.13;12.95;;;;;;;9.76;95.60;103059.06;5074825;28;20052;-67
2023/02/04 04:18:24;;;;;;;27.73;12.18;;;;;;;9.85;95.34;103059.50;5075881;28;20052;-67
2023/02/04 04:20:51;;;;;;;31.42;12.82;;;;;;;9.70;96.15;103054.56;5073817;28;20083;-68
2023/02/04 04:23:18;;;;;;;29.70;13.23;;;;;;;9.88;96.05;103056.22;5074094;28;20075;-67
2023/02/04 04:25:45;;;;;;;27.88;12.02;;;;;;;9.98;95.13;103065.47;5075302;28;20060;-66
2023/02/04 04:28:13;;;;;;;32.47;13.55;;;;;;;10.00;94.67;103059.72;5075777;28;20056;-68
2023/02/04 04:30:40;;;;;;;24.90;12.07;;;;;;;10.04;94.28;103049.88;5075337;28;20037;-67
2023/02/04 04:33:07;;;;;;;27.73;10.98;;;;;;;10.03;94.36;103059.19;5074127;28;20064;-67
2023/02/04 04:35:35;;;;;;;30.35;11.30;;;;;;;10.11;93.55;103064.31;5073284;28;20453;-66
2023/02/04 04:38:02;;;;;;;30.58;12.25;;;;;;;10.18;93.01;103064.97;5075466;28;20057;-67
2023/02/04 04:40:30;;;;;;;29.15;11.60;;;;;;;10.29;92.58;103061.25;5074486;28;20052;-67
2023/02/04 04:42:58;;;;;;;27.80;11.55;;;;;;;10.13;92.71;103060.22;5073421;28;20053;-67
2023/02/04 04:45:25;;;;;;;30.40;11.30;;;;;;;10.27;92.52;103063.44;5073723;28;20044;-67
2023/02/04 04:47:52;;;;;;;27.02;11.52;;;;;;;10.39;91.77;103064.16;5075345;28;20055;-67
2023/02/04 04:50:20;;;;;;;33.95;11.63;;;;;;;10.40;91.05;103065.00;5074946;28;20045;-67
2023/02/04 04:52:47;;;;;;;35.35;11.15;;;;;;;10.03;91.79;103070.22;5074813;28;20542;-67
2023/02/04 04:55:15;;;;;;;28.27;12.05;;;;;;;9.89;93.61;103069.72;5074931;28;20052;-67
2023/02/04 04:57:42;;;;;;;24.08;11.18;;;;;;;10.07;93.50;103065.88;5075074;28;20063;-67
2023/02/04 05:00:14;;;;;;;30.73;11.57;;;;;;;9.69;94.44;103074.09;5056436;28;20052;-67
2023/02/04 05:02:41;;;;;;;30.88;11.25;;;;;;;9.68;95.36;103081.50;5039852;28;20049;-67
2023/02/04 05:05:09;;;;;;;32.42;12.15;;;;;;;9.69;95.49;103085.09;5073573;28;20055;-67
2023/02/04 05:07:36;;;;;;;25.98;11.55;;;;;;;9.70;95.08;103081.25;5072741;28;20067;-67
2023/02/04 05:10:04;;;;;;;28.90;12.55;;;;;;;9.62;95.99;103087.19;5074862;28;20080;-66
2023/02/04 05:12:31;;;;;;;32.15;12.70;;;;;;;9.61;95.96;103080.84;5055826;28;20052;-68
2023/02/04 05:14:59;;;;;;;29.45;12.02;;;;;;;9.86;95.33;103077.66;5086609;28;20161;-67
2023/02/04 05:17:26;;;;;;;25.98;11.43;;;;;;;9.82;94.27;103079.25;5080689;28;20079;-66
2023/02/04 05:19:54;;;;;;;34.00;12.10;;;;;;;9.85;94.90;103074.06;5085774;28;20047;-67
2023/02/04 05:22:22;;;;;;;27.75;12.30;;;;;;;9.79;94.71;103072.34;5058347;28;20040;-67
2023/02/04 05:24:49;;;;;;;24.90;12.43;;;;;;;9.73;94.43;103076.06;5084261;28;20051;-67
2023/02/04 05:27:17;;;;;;;25.95;11.93;;;;;;;9.72;94.56;103073.56;5076218;28;20056;-68
2023/02/04 05:29:44;;;;;;;24.58;11.48;;;;;;;9.92;94.20;103080.22;5082279;28;20529;-67
2023/02/04 05:32:11;;;;;;;29.17;12.40;;;;;;;10.02;93.15;103074.06;5077224;28;20056;-67
2023/02/04 05:34:39;;;;;;;21.88;10.95;;;;;;;9.83;93.57;103073.47;5082424;28;20408;-67
2023/02/04 05:37:06;;;;;;;25.27;11.85;;;;;;;9.77;94.38;103081.91;5078360;28;20059;-67
2023/02/04 05:39:33;;;;;;;27.23;11.63;;;;;;;9.92;93.92;103074.72;5079586;28;20066;-67
2023/02/04 05:42:00;;;;;;;30.98;11.93;;;;;;;10.04;93.43;103086.47;5079581;28;20503;-68
2023/02/04 05:44:28;;;;;;;27.42;12.02;;;;;;;10.28;91.51;103078.03;5080048;28;20052;-67
2023/02/04 05:46:55;;;;;;;31.63;11.85;;;;;;;10.40;90.01;103092.53;5079902;28;20056;-68
2023/02/04 05:49:23;;;;;;;26.98;11.45;;;;;;;10.00;91.36;103088.09;5077758;28;20052;-67
2023/02/04 05:51:50;;;;;;;26.75;11.73;;;;;;;9.82;92.51;103096.59;5080035;28;20052;-68
2023/02/04 05:54:19;;;;;;;25.15;11.90;;;;;;;9.84;92.97;103099.09;5075823;28;20052;-67
2023/02/04 05:56:46;;;;;;;27.17;11.93;;;;;;;9.69;93.48;103099.66;5080989;28;20055;-68
2023/02/04 05:59:14;;;;;;;33.28;11.80;;;;;;;9.78;93.67;103103.69;5077318;28;20048;-67
2023/02/04 06:01:41;;;;;;;23.10;11.32;;;;;;;9.94;93.35;103088.22;5081832;28;20060;-67
2023/02/04 06:04:08;;;;;;;26.70;11.45;;;;;;;9.96;91.94;103097.94;5075223;28;20048;-67
2023/02/04 06:06:36;;;;;;;29.02;11.65;;;;;;;9.94;91.82;103094.59;5073857;28;20056;-66
2023/02/04 06:09:03;;;;;;;30.55;12.60;;;;;;;9.87;92.90;103101.34;5056934;28;20048;-67
2023/02/04 06:11:30;;;;;;;22.27;11.00;;;;;;;9.77;92.75;103109.44;5083286;28;20048;-68
2023/02/04 06:13:58;;;;;;;27.40;12.43;;;;;;;9.82;92.91;103101.25;5073008;28;20056;-69
2023/02/04 06:16:25;;;;;;;27.75;11.68;;;;;;;9.85;92.61;103106.28;5072464;28;20708;-68
2023/02/04 06:18:53;;;;;;;24.65;10.73;;;;;;;9.88;92.37;103108.53;5073750;28;20064;-67
2023/02/04 06:21:21;;;;;;;22.08;11.60;;;;;;;9.87;92.49;103104.94;5072048;28;20089;-67
2023/02/04 06:23:48;;;;;;;24.73;12.00;;;;;;;9.76;92.72;103118.78;5073623;28;20044;-67
2023/02/04 06:26:16;;;;;;;31.13;11.93;;;;;;;9.53;94.30;103116.19;5072010;28;20053;-67
2023/02/04 06:28:43;;;;;;;26.92;12.38;;;;;;;9.57;95.24;103112.66;5073607;28;20155;-67
2023/02/04 06:31:10;;;;;;;31.35;13.32;;;;;;;9.66;94.14;103113.13;5073525;28;20040;-67
2023/02/04 06:33:38;;;;;;;23.73;11.68;;;;;;;9.75;94.18;103109.69;5073937;28;20049;-68
2023/02/04 06:36:05;;;;;;;23.60;11.45;;;;;;;9.92;93.32;103113.28;5072445;28;20503;-67
2023/02/04 06:38:33;;;;;;;25.17;11.43;;;;;;;9.93;92.56;103111.34;5074943;28;20075;-67
2023/02/04 06:41:00;;;;;;;24.83;12.48;;;;;;;9.82;92.35;103109.50;5076001;28;20040;-67
2023/02/04 06:43:27;;;;;;;28.75;12.27;;;;;;;9.45;95.20;103098.16;5077442;28;20048;-69
2023/02/04 06:45:55;;;;;;;28.65;11.48;;;;;;;9.32;95.73;103106.72;5077273;28;20048;-67
2023/02/04 06:48:22;;;;;;;22.63;10.63;;;;;;;9.51;95.76;103104.56;5077139;28;20053;-67
2023/02/04 06:50:49;;;;;;;26.60;11.57;;;;;;;9.37;95.75;103111.47;5077119;28;20063;-67
2023/02/04 06:53:16;;;;;;;27.00;11.50;;;;;;;9.57;95.60;103107.16;5077546;28;20036;-67
2023/02/04 06:55:44;;;;;;;25.45;12.30;;;;;;;9.78;94.28;103105.63;5075017;28;20075;-68
2023/02/04 06:58:11;;;;;;;25.00;11.25;;;;;;;9.74;94.22;103102.53;5075880;28;20064;-68
2023/02/04 07:00:38;;;;;;;23.83;10.80;;;;;;;9.88;93.16;103095.59;5075802;28;20060;-68
2023/02/04 07:03:06;;;;;;;25.15;12.35;;;;;;;9.97;92.06;103094.06;5077283;28;20079;-68
2023/02/04 07:05:33;;;;;;;28.80;12.02;;;;;;;10.23;91.84;103090.66;5081045;28;20053;-68
2023/02/04 07:08:01;;;;;;;24.30;12.15;;;;;;;9.99;91.72;103102.91;5075371;28;20079;-68
2023/02/04 07:10:28;;;;;;;23.95;12.00;;;;;;;9.85;91.99;103098.03;5059296;28;20059;-68
2023/02/04 07:12:56;;;;;;;25.85;12.35;;;;;;;9.89;92.87;103101.94;5076415;28;20408;-68
2023/02/04 07:15:23;;;;;;;26.88;12.43;;;;;;;9.83;93.12;103101.00;5077041;28;20044;-68
2023/02/04 07:17:51;;;;;;;27.42;12.50;;;;;;;10.01;91.92;103100.75;5059605;28;20052;-68
2023/02/04 07:20:18;;;;;;;29.30;12.10;;;;;;;9.90;92.77;103101.66;5076676;28;20056;-68
2023/02/04 07:22:46;;;;;;;30.65;12.35;;;;;;;9.77;92.45;103107.53;5074081;28;20042;-66
2023/02/04 07:25:16;;;;;;;28.80;12.40;;;;;;;9.62;94.23;103110.03;5073399;28;20490;-68
2023/02/04 07:27:44;;;;;;;26.02;12.00;;;;;;;9.96;93.90;103122.72;5078066;28;20064;-67
2023/02/04 07:30:11;;;;;;;29.20;12.70;;;;;;;9.82;93.27;103126.03;5075632;28;20048;-68
2023/02/04 07:32:39;;;;;;;29.38;12.00;;;;;;;9.74;93.90;103132.81;5076313;28;20048;-69
2023/02/04 07:35:06;;;;;;;32.08;12.65;;;;;;;9.54;95.07;103137.09;5076141;28;20044;-68
2023/02/04 07:37:34;;;;;;;29.65;12.45;;;;;;;9.59;95.33;103137.22;5074228;28;20059;-67
2023/02/04 07:40:01;;;;;;;32.00;13.00;;;;;;;9.52;96.17;103131.03;5061447;28;20070;-68
2023/02/04 07:42:28;;;;;;;28.75;14.15;;;;;;;9.74;94.71;103135.56;5074821;28;20052;-68
2023/02/04 07:45:04;;;;;;;27.60;13.30;;;;;;;9.56;95.63;103135.78;5059727;28;20052;-69
2023/02/04 07:47:32;;;;;;;24.23;11.85;;;;;;;9.53;96.14;103151.94;5070293;28;20060;-69
2023/02/04 07:49:59;;;;;;;30.10;13.23;;;;;;;9.82;95.21;103148.91;5058026;28;20048;-68
2023/02/04 07:52:26;;;;;;;29.23;13.45;;;;;;;9.85;93.69;103147.56;5065199;28;20045;-68
2023/02/04 07:54:54;;;;;;;27.63;13.65;;;;;;;9.76;94.77;103151.81;5069485;28;20075;-68
2023/02/04 07:57:21;;;;;;;27.95;13.40;;;;;;;10.03;94.05;103150.91;5076603;28;20052;-70
2023/02/04 07:59:48;;;;;;;32.03;13.43;;;;;;;9.94;92.88;103155.16;5054426;28;20053;-68
2023/02/04 08:02:15;;;;;;;23.42;12.55;;;;;;;10.13;92.97;103147.50;5074902;28;20056;-68
2023/02/04 08:04:43;;;;;;;25.60;13.15;;;;;;;10.16;92.16;103147.00;5074995;28;20048;-68
2023/02/04 08:07:10;;;;;;;30.33;13.80;;;;;;;9.89;92.70;103165.25;5069115;28;20052;-67
2023/02/04 08:09:37;;;;;;;29.67;13.65;;;;;;;10.00;93.29;103164.34;5059057;28;20088;-68
2023/02/04 08:12:05;;;;;;;27.95;12.77;;;;;;;10.07;92.74;103160.34;5050141;28;20041;-69
2023/02/04 08:14:32;;;;;;;29.23;13.20;;;;;;;10.02;92.68;103162.16;5065874;28;20048;-69
2023/02/04 08:17:00;;;;;;;30.85;13.82;;;;;;;10.02;93.13;103162.97;5050972;28;20057;-68
2023/02/04 08:19:27;;;;;;;30.35;13.63;;;;;;;10.02;92.87;103160.22;5055550;28;20049;-67
2023/02/04 08:21:54;;;;;;;27.90;12.95;;;;;;;10.06;92.28;103164.16;5071621;28;20044;-69
2023/02/04 08:24:22;;;;;;;28.98;12.15;;;;;;;10.03;92.59;103167.44;5073734;28;20052;-67
2023/02/04 08:26:49;;;;;;;29.33;13.48;;;;;;;9.86;93.30;103168.50;5065499;28;20064;-69
2023/02/04 08:29:18;;;;;;;27.70;13.30;;;;;;;9.99;92.98;103157.13;5056105;28;20047;-70
2023/02/04 08:31:46;;;;;;;28.67;12.77;;;;;;;10.21;92.03;103171.88;5060487;28;20052;-68
2023/02/04 08:34:14;;;;;;;28.95;13.18;;;;;;;9.97;92.88;103167.59;5056410;28;20056;-68
2023/02/04 08:36:41;;;;;;;28.88;13.43;;;;;;;10.10;92.85;103173.63;5059808;28;20496;-68
2023/02/04 08:39:08;;;;;;;29.35;13.63;;;;;;;9.91;93.53;103165.81;5055659;28;20381;-68
2023/02/04 08:41:36;;;;;;;28.30;13.23;;;;;;;10.20;93.16;103176.53;5059657;28;20053;-68
2023/02/04 08:44:03;;;;;;;28.50;12.88;;;;;;;9.89;93.39;103176.25;5054768;28;20044;-68
2023/02/04 08:46:31;;;;;;;26.05;12.63;;;;;;;10.15;93.46;103175.63;5060393;28;20049;-68
2023/02/04 08:48:59;;;;;;;26.88;12.73;;;;;;;10.30;91.10;103173.13;5056070;28;20052;-69
2023/02/04 08:51:26;;;;;;;27.00;13.43;;;;;;;10.07;92.01;103176.88;5058520;28;20048;-67
2023/02/04 08:53:53;;;;;;;27.95;13.13;;;;;;;9.71;94.18;103182.81;5055628;28;20053;-67
2023/02/04 08:56:21;;;;;;;24.95;12.55;;;;;;;9.53;95.57;103176.69;5056742;28;20053;-68
2023/02/04 08:58:48;;;;;;;28.65;13.52;;;;;;;9.77;95.96;103181.84;5063132;28;20052;-72
2023/02/04 09:01:16;;;;;;;31.27;12.60;;;;;;;10.10;95.26;103181.06;5044905;28;20045;-75
2023/02/04 09:03:43;;;;;;;26.40;12.32;;;;;;;10.01;95.13;103177.84;5057476;28;20045;-70
2023/02/04 09:06:11;;;;;;;20.58;11.35;;;;;;;9.94;95.26;103179.09;5070735;28;20458;-70
2023/02/04 09:08:38;;;;;;;19.80;11.82;;;;;;;9.70;96.63;103186.66;5047961;28;20053;-69
2023/02/04 09:11:06;;;;;;;28.60;11.88;;;;;;;9.80;97.42;103186.00;5063076;28;20459;-71
2023/02/04 09:13:33;;;;;;;23.65;11.75;;;;;;;10.04;96.79;103190.28;5035086;28;20045;-69
2023/02/04 09:16:00;;;;;;;23.52;13.10;;;;;;;9.95;95.99;103191.78;5066759;28;20044;-73
2023/02/04 09:18:29;;;;;;;22.42;10.88;;;;;;;10.15;96.00;103190.22;5074253;28;20048;-74
2023/02/04 09:20:57;;;;;;;24.58;10.90;;;;;;;10.28;95.66;103191.81;5068492;28;20051;-71
2023/02/04 09:23:24;;;;;;;30.20;11.25;;;;;;;10.32;95.27;103190.22;5054186;28;20052;-71
2023/02/04 09:25:52;;;;;;;24.17;11.60;;;;;;;10.54;94.30;103188.38;5056596;28;20052;-71
2023/02/04 09:28:19;;;;;;;22.98;11.20;;;;;;;10.52;93.81;103201.56;5057544;28;20068;-71
2023/02/04 09:30:46;;;;;;;22.65;10.27;;;;;;;9.93;96.74;103200.31;5043837;28;20478;-70
2023/02/04 09:33:18;;;;;;;20.58;10.88;;;;;;;9.93;98.19;103188.44;5066767;28;20060;-72
2023/02/04 09:35:45;;;;;;;19.58;11.00;;;;;;;10.23;99.19;103200.00;5059761;28;20040;-72
2023/02/04 09:38:12;;;;;;;19.83;11.27;;;;;;;10.07;99.65;103203.56;5059738;28;20056;-69
2023/02/04 09:40:43;;;;;;;22.23;10.43;;;;;;;9.90;100.00;103203.53;5074135;28;20052;-71
2023/02/04 09:43:13;;;;;;;26.73;12.45;;;;;;;9.65;100.00;103202.25;5057024;28;20052;-72
2023/02/04 09:45:41;;;;;;;28.77;12.48;;;;;;;10.05;100.00;103198.31;5067290;28;20048;-73
2023/02/04 09:48:10;;;;;;;23.30;12.23;;;;;;;10.50;100.00;103198.22;5061551;28;20477;-74
2023/02/04 09:50:37;;;;;;;22.35;11.45;;;;;;;10.79;100.00;103205.25;5065313;28;20056;-72
2023/02/04 09:53:06;;;;;;;16.90;8.68;;;;;;;13.54;89.47;103200.47;5038776;28;20052;-50
2023/02/04 09:55:37;;;;;;;14.25;6.70;;;;;;;13.11;76.37;103205.56;5061440;28;20044;-49
2023/02/04 09:58:11;;;;;;;18.15;7.30;;;;;;;11.48;85.74;103208.34;5060071;28;20044;-52
2023/02/04 10:00:39;;;;;;;13.90;6.57;;;;;;;13.84;77.26;103205.25;5045515;28;20057;-50
2023/02/04 10:03:14;;;;;;;15.07;6.82;;;;;;;12.75;90.49;103211.97;5067524;28;20037;-47
2023/02/04 10:05:43;;;;;;;13.68;5.00;;;;;;;17.39;67.03;103197.03;5047847;28;20048;-52
2023/02/04 10:08:15;;;;;;;7.68;4.00;;;;;;;17.76;60.84;103197.09;5053946;28;20517;-48
2023/02/04 10:10:44;;;;;;;9.50;4.60;;;;;;;14.80;69.54;103214.38;5068467;28;20048;-48
2023/02/04 10:13:20;;;;;;;14.30;4.35;;;;;;;16.34;70.50;103208.22;5062689;28;20052;-52
2023/02/04 10:15:48;;;;;;;13.40;4.57;;;;;;;18.74;60.03;103200.44;5070854;28;20053;-51
2023/02/04 10:18:24;;;;;;;10.95;4.68;;;;;;;19.00;58.38;103203.56;5059159;28;20456;-53
2023/02/04 10:21:21;;;;;;;14.25;4.45;;;;;;;18.75;56.22;103209.66;5072629;28;20519;-47
2023/02/04 10:23:53;;;;;;;11.27;3.80;;;;;;;19.47;57.00;103202.31;5058862;28;20049;-50
2023/02/04 10:26:21;;;;;;;7.75;3.90;;;;;;;19.24;56.76;103203.34;5062424;28;20068;-47
2023/02/04 10:28:48;;;;;;;9.57;4.47;;;;;;;17.76;61.80;103213.81;5057788;28;20067;-49
2023/02/04 10:31:35;;;;;;;8.40;3.08;;;;;;;19.33;57.38;103201.50;5062419;28;20045;-47
2023/02/04 10:34:06;;;;;;;11.48;4.57;;;;;;;19.40;61.68;103210.31;5060031;28;20052;-47
2023/02/04 10:36:33;;;;;;;6.82;3.83;;;;;;;18.90;59.26;103212.97;5063840;28;20072;-49
2023/02/04 10:39:10;;;;;;;9.43;4.03;;;;;;;18.37;65.06;103210.88;5067311;28;20044;-49
2023/02/04 10:41:38;;;;;;;11.68;3.42;;;;;;;19.86;58.85;103217.34;5063802;28;20049;-49
2023/02/04 10:44:09;;;;;;;8.52;3.75;;;;;;;20.13;57.60;103208.84;5057810;28;20044;-49
2023/02/04 10:46:37;;;;;;;10.27;3.97;;;;;;;19.76;54.05;103214.78;5064721;28;20051;-53
2023/02/04 10:49:14;;;;;;;9.02;4.00;;;;;;;19.77;56.94;103222.00;5057794;28;20041;-49
2023/02/04 10:51:41;;;;;;;8.50;3.38;;;;;;;19.65;58.86;103221.75;5064684;28;20041;-47
2023/02/04 10:54:31;;;;;;;9.13;4.05;;;;;;;18.48;58.59;103221.56;5062030;28;20044;-49
2023/02/04 10:57:02;;;;;;;9.68;3.85;;;;;;;18.84;61.37;103219.81;5069028;28;20052;-55
2023/02/04 10:59:29;;;;;;;10.32;4.38;;;;;;;18.86;56.66;103222.28;5056147;28;20048;-50
2023/02/04 11:01:57;;;;;;;7.72;4.07;;;;;;;19.58;59.13;103214.94;5063468;28;20079;-49
2023/02/04 11:04:25;;;;;;;11.10;4.18;;;;;;;19.69;56.34;103208.78;5062975;28;20048;-54
2023/02/04 11:06:53;;;;;;;7.25;4.00;;;;;;;20.10;55.52;103217.06;5073995;28;20053;-52
2023/02/04 11:09:20;;;;;;;6.55;3.55;;;;;;;19.96;55.88;103211.50;5060073;28;20049;-52
2023/02/04 11:11:49;;;;;;;14.18;4.63;;;;;;;19.69;56.90;103205.16;5062611;28;20060;-47
2023/02/04 11:14:22;;;;;;;8.23;4.43;;;;;;;17.60;62.09;103218.78;5068940;28;20052;-63
2023/02/04 11:16:50;;;;;;;14.65;4.00;;;;;;;16.75;69.67;103215.06;5065096;28;20053;-57
2023/02/04 11:19:32;;;;;;;11.05;5.68;;;;;;;16.87;61.01;103214.69;5063670;28;20064;-76
2023/02/04 11:22:22;;;;;;;10.15;5.90;;;;;;;14.91;68.26;103220.69;5071114;28;20075;-73